sensor_id;sensor_type;location;lat;lon;timestamp;P1;durP1;ratioP1;P2;durP2;ratioP2
21979;SDS011;11154;48.558;9.234;2023-06-10T00:01:30;6.07;;;4.95;;
21979;SDS011;11154;48.558;9.234;2023-06-10T00:03:35;5.32;;;4.60;;
21979;SDS011;11154;48.558;9.234;2023-06-10T00:05:37;6.90;;;5.55;;
21979;SDS011;11154;48.558;9.234;2023-06-10T00:07:39;7.00;;;4.82;;
21979;SDS011;11154;48.558;9.234;2023-06-10T00:09:41;6.28;;;4.40;;
21979;SDS011;11154;48.558;9.234;2023-06-10T00:11:43;6.72;;;5.10;;
21979;SDS011;11154;48.558;9.234;2023-06-10T00:13:45;5.78;;;4.93;;
21979;SDS011;11154;48.558;9.234;2023-06-10T00:15:46;5.47;;;4.70;;
21979;SDS011;11154;48.558;9.234;2023-06-10T00:17:48;6.35;;;4.85;;
21979;SDS011;11154;48.558;9.234;2023-06-10T00:19:51;7.88;;;5.07;;
21979;SDS011;11154;48.558;9.234;2023-06-10T00:21:53;6.25;;;4.80;;
21979;SDS011;11154;48.558;9.234;2023-06-10T00:23:54;6.93;;;4.93;;
21979;SDS011;11154;48.558;9.234;2023-06-10T00:25:56;5.90;;;4.63;;
21979;SDS011;11154;48.558;9.234;2023-06-10T00:27:59;8.25;;;5.05;;
21979;SDS011;11154;48.558;9.234;2023-06-10T00:30:02;4.93;;;4.43;;
21979;SDS011;11154;48.558;9.234;2023-06-10T00:32:07;7.03;;;5.30;;
21979;SDS011;11154;48.558;9.234;2023-06-10T00:34:09;9.60;;;5.55;;
21979;SDS011;11154;48.558;9.234;2023-06-10T00:36:12;6.65;;;5.53;;
21979;SDS011;11154;48.558;9.234;2023-06-10T00:38:14;7.10;;;5.05;;
21979;SDS011;11154;48.558;9.234;2023-06-10T00:40:15;7.85;;;5.60;;
21979;SDS011;11154;48.558;9.234;2023-06-10T00:42:17;5.82;;;4.80;;
21979;SDS011;11154;48.558;9.234;2023-06-10T00:44:19;8.43;;;4.55;;
21979;SDS011;11154;48.558;9.234;2023-06-10T00:46:21;6.22;;;4.78;;
21979;SDS011;11154;48.558;9.234;2023-06-10T00:48:24;6.30;;;5.40;;
21979;SDS011;11154;48.558;9.234;2023-06-10T00:50:25;6.28;;;5.28;;
21979;SDS011;11154;48.558;9.234;2023-06-10T00:52:29;5.75;;;4.93;;
21979;SDS011;11154;48.558;9.234;2023-06-10T00:54:31;6.20;;;5.40;;
21979;SDS011;11154;48.558;9.234;2023-06-10T00:56:32;7.07;;;5.60;;
21979;SDS011;11154;48.558;9.234;2023-06-10T00:58:35;6.45;;;5.07;;
21979;SDS011;11154;48.558;9.234;2023-06-10T01:00:37;6.80;;;5.22;;
21979;SDS011;11154;48.558;9.234;2023-06-10T01:02:39;7.78;;;5.13;;
21979;SDS011;11154;48.558;9.234;2023-06-10T01:04:40;7.88;;;5.00;;
21979;SDS011;11154;48.558;9.234;2023-06-10T01:06:44;5.78;;;4.95;;
21979;SDS011;11154;48.558;9.234;2023-06-10T01:10:59;6.38;;;5.15;;
21979;SDS011;11154;48.558;9.234;2023-06-10T01:13:03;8.45;;;4.97;;
21979;SDS011;11154;48.558;9.234;2023-06-10T01:15:08;10.43;;;4.72;;
21979;SDS011;11154;48.558;9.234;2023-06-10T01:17:11;7.05;;;4.78;;
21979;SDS011;11154;48.558;9.234;2023-06-10T01:19:16;5.85;;;5.15;;
21979;SDS011;11154;48.558;9.234;2023-06-10T01:21:21;6.63;;;4.95;;
21979;SDS011;11154;48.558;9.234;2023-06-10T01:23:24;6.70;;;5.20;;
21979;SDS011;11154;48.558;9.234;2023-06-10T01:25:27;6.10;;;5.07;;
21979;SDS011;11154;48.558;9.234;2023-06-10T01:27:33;6.43;;;5.18;;
21979;SDS011;11154;48.558;9.234;2023-06-10T01:29:43;5.60;;;5.03;;
21979;SDS011;11154;48.558;9.234;2023-06-10T01:31:49;6.03;;;5.25;;
21979;SDS011;11154;48.558;9.234;2023-06-10T01:33:55;5.57;;;4.97;;
21979;SDS011;11154;48.558;9.234;2023-06-10T01:35:57;8.32;;;5.50;;
21979;SDS011;11154;48.558;9.234;2023-06-10T01:38:01;7.00;;;5.60;;
21979;SDS011;11154;48.558;9.234;2023-06-10T01:40:05;5.68;;;5.10;;
21979;SDS011;11154;48.558;9.234;2023-06-10T01:42:07;6.95;;;4.97;;
21979;SDS011;11154;48.558;9.234;2023-06-10T01:44:11;6.65;;;5.45;;
21979;SDS011;11154;48.558;9.234;2023-06-10T01:46:12;6.53;;;5.82;;
21979;SDS011;11154;48.558;9.234;2023-06-10T01:48:14;5.53;;;4.80;;
21979;SDS011;11154;48.558;9.234;2023-06-10T01:50:16;6.55;;;5.28;;
21979;SDS011;11154;48.558;9.234;2023-06-10T01:52:18;7.18;;;5.25;;
21979;SDS011;11154;48.558;9.234;2023-06-10T01:54:21;6.18;;;4.95;;
21979;SDS011;11154;48.558;9.234;2023-06-10T01:56:22;7.40;;;5.40;;
21979;SDS011;11154;48.558;9.234;2023-06-10T01:58:24;6.93;;;4.97;;
21979;SDS011;11154;48.558;9.234;2023-06-10T02:00:26;6.90;;;4.90;;
21979;SDS011;11154;48.558;9.234;2023-06-10T02:02:28;5.88;;;4.70;;
21979;SDS011;11154;48.558;9.234;2023-06-10T02:04:29;6.95;;;4.80;;
21979;SDS011;11154;48.558;9.234;2023-06-10T02:06:31;6.72;;;5.20;;
21979;SDS011;11154;48.558;9.234;2023-06-10T02:08:33;7.18;;;5.13;;
21979;SDS011;11154;48.558;9.234;2023-06-10T02:10:36;5.53;;;4.72;;
21979;SDS011;11154;48.558;9.234;2023-06-10T02:12:37;8.90;;;5.03;;
21979;SDS011;11154;48.558;9.234;2023-06-10T02:14:39;5.93;;;4.97;;
21979;SDS011;11154;48.558;9.234;2023-06-10T02:16:41;7.38;;;4.97;;
21979;SDS011;11154;48.558;9.234;2023-06-10T02:18:46;5.72;;;4.93;;
21979;SDS011;11154;48.558;9.234;2023-06-10T02:20:48;8.82;;;5.10;;
21979;SDS011;11154;48.558;9.234;2023-06-10T02:22:50;5.95;;;5.32;;
21979;SDS011;11154;48.558;9.234;2023-06-10T02:24:52;5.70;;;5.03;;
21979;SDS011;11154;48.558;9.234;2023-06-10T02:26:55;6.20;;;5.15;;
21979;SDS011;11154;48.558;9.234;2023-06-10T02:28:57;7.68;;;5.45;;
21979;SDS011;11154;48.558;9.234;2023-06-10T02:30:58;5.45;;;4.90;;
21979;SDS011;11154;48.558;9.234;2023-06-10T02:33:00;5.95;;;5.25;;
21979;SDS011;11154;48.558;9.234;2023-06-10T02:35:02;6.63;;;5.25;;
21979;SDS011;11154;48.558;9.234;2023-06-10T02:37:04;6.22;;;5.30;;
21979;SDS011;11154;48.558;9.234;2023-06-10T02:39:05;6.07;;;5.47;;
21979;SDS011;11154;48.558;9.234;2023-06-10T02:41:07;6.63;;;5.47;;
21979;SDS011;11154;48.558;9.234;2023-06-10T02:43:10;6.07;;;5.47;;
21979;SDS011;11154;48.558;9.234;2023-06-10T02:45:12;7.32;;;5.40;;
21979;SDS011;11154;48.558;9.234;2023-06-10T02:47:13;8.60;;;5.20;;
21979;SDS011;11154;48.558;9.234;2023-06-10T02:49:15;5.72;;;5.13;;
21979;SDS011;11154;48.558;9.234;2023-06-10T02:51:17;6.53;;;5.65;;
21979;SDS011;11154;48.558;9.234;2023-06-10T02:53:19;6.80;;;5.40;;
21979;SDS011;11154;48.558;9.234;2023-06-10T02:55:21;8.23;;;5.15;;
21979;SDS011;11154;48.558;9.234;2023-06-10T02:57:26;6.45;;;5.05;;
21979;SDS011;11154;48.558;9.234;2023-06-10T02:59:29;5.75;;;5.15;;
21979;SDS011;11154;48.558;9.234;2023-06-10T03:01:30;5.82;;;5.22;;
21979;SDS011;11154;48.558;9.234;2023-06-10T03:03:32;5.85;;;5.15;;
21979;SDS011;11154;48.558;9.234;2023-06-10T03:05:35;5.97;;;5.38;;
21979;SDS011;11154;48.558;9.234;2023-06-10T03:07:36;6.85;;;5.00;;
21979;SDS011;11154;48.558;9.234;2023-06-10T03:09:38;8.00;;;4.95;;
21979;SDS011;11154;48.558;9.234;2023-06-10T03:11:40;6.35;;;5.15;;
21979;SDS011;11154;48.558;9.234;2023-06-10T03:13:41;7.60;;;5.20;;
21979;SDS011;11154;48.558;9.234;2023-06-10T03:15:44;7.53;;;5.70;;
21979;SDS011;11154;48.558;9.234;2023-06-10T03:17:46;6.95;;;5.70;;
21979;SDS011;11154;48.558;9.234;2023-06-10T03:19:48;6.10;;;4.80;;
21979;SDS011;11154;48.558;9.234;2023-06-10T03:21:50;10.25;;;5.75;;
21979;SDS011;11154;48.558;9.234;2023-06-10T03:23:58;6.32;;;5.22;;
21979;SDS011;11154;48.558;9.234;2023-06-10T03:26:00;6.28;;;5.28;;
21979;SDS011;11154;48.558;9.234;2023-06-10T03:28:02;5.75;;;5.15;;
21979;SDS011;11154;48.558;9.234;2023-06-10T03:30:04;6.30;;;5.70;;
21979;SDS011;11154;48.558;9.234;2023-06-10T03:32:08;8.32;;;5.78;;
21979;SDS011;11154;48.558;9.234;2023-06-10T03:34:10;5.85;;;5.25;;
21979;SDS011;11154;48.558;9.234;2023-06-10T03:36:12;5.88;;;5.05;;
21979;SDS011;11154;48.558;9.234;2023-06-10T03:38:13;7.38;;;5.85;;
21979;SDS011;11154;48.558;9.234;2023-06-10T03:40:15;6.70;;;5.82;;
21979;SDS011;11154;48.558;9.234;2023-06-10T03:42:17;6.43;;;5.30;;
21979;SDS011;11154;48.558;9.234;2023-06-10T03:44:18;8.07;;;5.82;;
21979;SDS011;11154;48.558;9.234;2023-06-10T03:46:20;6.60;;;5.90;;
21979;SDS011;11154;48.558;9.234;2023-06-10T03:48:23;5.60;;;5.00;;
21979;SDS011;11154;48.558;9.234;2023-06-10T03:50:25;9.13;;;5.72;;
21979;SDS011;11154;48.558;9.234;2023-06-10T03:52:26;7.35;;;5.25;;
21979;SDS011;11154;48.558;9.234;2023-06-10T03:54:28;6.72;;;5.43;;
21979;SDS011;11154;48.558;9.234;2023-06-10T03:56:31;6.05;;;5.45;;
21979;SDS011;11154;48.558;9.234;2023-06-10T03:58:33;5.50;;;4.90;;
21979;SDS011;11154;48.558;9.234;2023-06-10T04:00:35;7.00;;;5.85;;
21979;SDS011;11154;48.558;9.234;2023-06-10T04:02:41;6.28;;;5.53;;
21979;SDS011;11154;48.558;9.234;2023-06-10T04:04:47;5.80;;;5.18;;
21979;SDS011;11154;48.558;9.234;2023-06-10T04:06:48;6.57;;;5.55;;
21979;SDS011;11154;48.558;9.234;2023-06-10T04:08:50;6.97;;;5.30;;
21979;SDS011;11154;48.558;9.234;2023-06-10T04:10:52;6.30;;;5.50;;
21979;SDS011;11154;48.558;9.234;2023-06-10T04:12:54;7.35;;;5.78;;
21979;SDS011;11154;48.558;9.234;2023-06-10T04:14:56;6.90;;;5.40;;
21979;SDS011;11154;48.558;9.234;2023-06-10T04:16:57;7.35;;;5.78;;
21979;SDS011;11154;48.558;9.234;2023-06-10T04:18:59;7.30;;;5.70;;
21979;SDS011;11154;48.558;9.234;2023-06-10T04:21:02;6.55;;;5.40;;
21979;SDS011;11154;48.558;9.234;2023-06-10T04:23:04;6.40;;;5.45;;
21979;SDS011;11154;48.558;9.234;2023-06-10T04:25:05;7.07;;;6.15;;
21979;SDS011;11154;48.558;9.234;2023-06-10T04:27:08;9.20;;;6.03;;
21979;SDS011;11154;48.558;9.234;2023-06-10T04:29:10;8.43;;;5.70;;
21979;SDS011;11154;48.558;9.234;2023-06-10T04:31:12;7.13;;;5.45;;
21979;SDS011;11154;48.558;9.234;2023-06-10T04:33:13;7.57;;;6.03;;
21979;SDS011;11154;48.558;9.234;2023-06-10T04:35:15;5.93;;;5.20;;
21979;SDS011;11154;48.558;9.234;2023-06-10T04:37:18;6.78;;;5.80;;
21979;SDS011;11154;48.558;9.234;2023-06-10T04:39:20;7.65;;;5.32;;
21979;SDS011;11154;48.558;9.234;2023-06-10T04:41:22;7.00;;;5.22;;
21979;SDS011;11154;48.558;9.234;2023-06-10T04:43:25;9.85;;;5.95;;
21979;SDS011;11154;48.558;9.234;2023-06-10T04:45:29;5.97;;;5.38;;
21979;SDS011;11154;48.558;9.234;2023-06-10T04:47:31;6.50;;;5.90;;
21979;SDS011;11154;48.558;9.234;2023-06-10T04:49:33;8.13;;;5.28;;
21979;SDS011;11154;48.558;9.234;2023-06-10T04:51:35;6.50;;;5.65;;
21979;SDS011;11154;48.558;9.234;2023-06-10T04:53:39;6.53;;;5.57;;
21979;SDS011;11154;48.558;9.234;2023-06-10T04:55:40;7.93;;;5.70;;
21979;SDS011;11154;48.558;9.234;2023-06-10T04:57:42;6.80;;;5.57;;
21979;SDS011;11154;48.558;9.234;2023-06-10T04:59:44;8.35;;;5.55;;
21979;SDS011;11154;48.558;9.234;2023-06-10T05:01:45;6.45;;;5.85;;
21979;SDS011;11154;48.558;9.234;2023-06-10T05:03:47;6.95;;;5.80;;
21979;SDS011;11154;48.558;9.234;2023-06-10T05:05:49;7.60;;;6.50;;
21979;SDS011;11154;48.558;9.234;2023-06-10T05:07:50;9.05;;;6.00;;
21979;SDS011;11154;48.558;9.234;2023-06-10T05:09:53;11.90;;;5.75;;
21979;SDS011;11154;48.558;9.234;2023-06-10T05:11:55;6.25;;;5.32;;
21979;SDS011;11154;48.558;9.234;2023-06-10T05:13:56;7.65;;;5.45;;
21979;SDS011;11154;48.558;9.234;2023-06-10T05:15:58;6.75;;;6.10;;
21979;SDS011;11154;48.558;9.234;2023-06-10T05:18:00;11.05;;;6.20;;
21979;SDS011;11154;48.558;9.234;2023-06-10T05:20:02;6.25;;;5.55;;
21979;SDS011;11154;48.558;9.234;2023-06-10T05:22:04;6.55;;;5.88;;
21979;SDS011;11154;48.558;9.234;2023-06-10T05:24:06;8.85;;;6.65;;
21979;SDS011;11154;48.558;9.234;2023-06-10T05:26:10;6.60;;;5.88;;
21979;SDS011;11154;48.558;9.234;2023-06-10T05:28:11;8.05;;;6.07;;
21979;SDS011;11154;48.558;9.234;2023-06-10T05:30:16;7.95;;;6.07;;
21979;SDS011;11154;48.558;9.234;2023-06-10T05:32:19;8.75;;;6.57;;
21979;SDS011;11154;48.558;9.234;2023-06-10T05:34:21;8.32;;;6.50;;
21979;SDS011;11154;48.558;9.234;2023-06-10T05:36:23;6.57;;;5.93;;
21979;SDS011;11154;48.558;9.234;2023-06-10T05:38:25;7.40;;;6.63;;
21979;SDS011;11154;48.558;9.234;2023-06-10T05:40:27;9.07;;;6.63;;
21979;SDS011;11154;48.558;9.234;2023-06-10T05:42:30;7.28;;;6.50;;
21979;SDS011;11154;48.558;9.234;2023-06-10T05:44:31;7.80;;;6.28;;
21979;SDS011;11154;48.558;9.234;2023-06-10T05:46:33;9.75;;;6.32;;
21979;SDS011;11154;48.558;9.234;2023-06-10T05:48:35;8.25;;;6.47;;
21979;SDS011;11154;48.558;9.234;2023-06-10T05:50:36;8.38;;;6.82;;
21979;SDS011;11154;48.558;9.234;2023-06-10T05:52:41;7.40;;;6.22;;
21979;SDS011;11154;48.558;9.234;2023-06-10T05:54:42;7.72;;;6.90;;
21979;SDS011;11154;48.558;9.234;2023-06-10T05:56:44;6.88;;;6.18;;
21979;SDS011;11154;48.558;9.234;2023-06-10T05:58:47;7.95;;;6.18;;
21979;SDS011;11154;48.558;9.234;2023-06-10T06:00:49;6.65;;;6.03;;
21979;SDS011;11154;48.558;9.234;2023-06-10T06:02:51;7.82;;;6.13;;
21979;SDS011;11154;48.558;9.234;2023-06-10T06:04:53;8.13;;;6.40;;
21979;SDS011;11154;48.558;9.234;2023-06-10T06:06:55;7.15;;;6.15;;
21979;SDS011;11154;48.558;9.234;2023-06-10T06:08:56;7.05;;;5.75;;
21979;SDS011;11154;48.558;9.234;2023-06-10T06:10:58;7.25;;;6.35;;
21979;SDS011;11154;48.558;9.234;2023-06-10T06:13:00;7.93;;;6.63;;
21979;SDS011;11154;48.558;9.234;2023-06-10T06:15:03;7.03;;;6.32;;
21979;SDS011;11154;48.558;9.234;2023-06-10T06:17:07;7.00;;;6.00;;
21979;SDS011;11154;48.558;9.234;2023-06-10T06:19:08;7.55;;;5.93;;
21979;SDS011;11154;48.558;9.234;2023-06-10T06:21:11;6.88;;;6.18;;
21979;SDS011;11154;48.558;9.234;2023-06-10T06:23:12;6.68;;;5.97;;
21979;SDS011;11154;48.558;9.234;2023-06-10T06:25:14;8.10;;;5.80;;
21979;SDS011;11154;48.558;9.234;2023-06-10T06:27:16;6.93;;;6.05;;
21979;SDS011;11154;48.558;9.234;2023-06-10T06:29:17;7.30;;;6.50;;
21979;SDS011;11154;48.558;9.234;2023-06-10T06:31:20;6.40;;;5.68;;
21979;SDS011;11154;48.558;9.234;2023-06-10T06:33:22;7.00;;;5.50;;
21979;SDS011;11154;48.558;9.234;2023-06-10T06:35:26;7.72;;;5.70;;
21979;SDS011;11154;48.558;9.234;2023-06-10T06:37:27;7.25;;;6.28;;
21979;SDS011;11154;48.558;9.234;2023-06-10T06:39:29;7.43;;;5.85;;
21979;SDS011;11154;48.558;9.234;2023-06-10T06:41:31;6.30;;;5.70;;
21979;SDS011;11154;48.558;9.234;2023-06-10T06:43:32;6.05;;;5.40;;
21979;SDS011;11154;48.558;9.234;2023-06-10T06:45:35;6.35;;;5.18;;
21979;SDS011;11154;48.558;9.234;2023-06-10T06:47:38;5.85;;;5.03;;
21979;SDS011;11154;48.558;9.234;2023-06-10T06:49:39;6.45;;;5.20;;
21979;SDS011;11154;48.558;9.234;2023-06-10T06:51:41;5.38;;;4.88;;
21979;SDS011;11154;48.558;9.234;2023-06-10T06:53:42;6.03;;;4.70;;
21979;SDS011;11154;48.558;9.234;2023-06-10T06:55:45;4.95;;;4.32;;
21979;SDS011;11154;48.558;9.234;2023-06-10T06:57:47;6.20;;;4.93;;
21979;SDS011;11154;48.558;9.234;2023-06-10T06:59:49;6.40;;;5.05;;
21979;SDS011;11154;48.558;9.234;2023-06-10T07:01:50;5.18;;;4.65;;
21979;SDS011;11154;48.558;9.234;2023-06-10T07:03:55;5.00;;;4.35;;
21979;SDS011;11154;48.558;9.234;2023-06-10T07:05:57;7.05;;;4.53;;
21979;SDS011;11154;48.558;9.234;2023-06-10T07:07:58;7.25;;;4.32;;
21979;SDS011;11154;48.558;9.234;2023-06-10T07:10:00;6.03;;;4.80;;
21979;SDS011;11154;48.558;9.234;2023-06-10T07:12:02;6.53;;;4.78;;
21979;SDS011;11154;48.558;9.234;2023-06-10T07:14:04;5.63;;;5.00;;
21979;SDS011;11154;48.558;9.234;2023-06-10T07:16:05;5.40;;;4.65;;
21979;SDS011;11154;48.558;9.234;2023-06-10T07:18:07;5.75;;;4.50;;
21979;SDS011;11154;48.558;9.234;2023-06-10T07:20:11;5.28;;;4.28;;
21979;SDS011;11154;48.558;9.234;2023-06-10T07:22:14;4.70;;;4.18;;
21979;SDS011;11154;48.558;9.234;2023-06-10T07:24:16;5.30;;;4.28;;
21979;SDS011;11154;48.558;9.234;2023-06-10T07:26:21;6.07;;;4.47;;
21979;SDS011;11154;48.558;9.234;2023-06-10T07:28:23;4.93;;;4.32;;
21979;SDS011;11154;48.558;9.234;2023-06-10T07:30:25;5.28;;;4.13;;
21979;SDS011;11154;48.558;9.234;2023-06-10T07:32:26;4.75;;;4.25;;
21979;SDS011;11154;48.558;9.234;2023-06-10T07:34:28;4.60;;;4.20;;
21979;SDS011;11154;48.558;9.234;2023-06-10T07:36:31;6.95;;;4.47;;
21979;SDS011;11154;48.558;9.234;2023-06-10T07:38:32;5.05;;;4.30;;
21979;SDS011;11154;48.558;9.234;2023-06-10T07:40:34;5.00;;;4.50;;
21979;SDS011;11154;48.558;9.234;2023-06-10T07:42:36;5.22;;;4.72;;
21979;SDS011;11154;48.558;9.234;2023-06-10T07:44:38;5.35;;;4.85;;
21979;SDS011;11154;48.558;9.234;2023-06-10T07:46:39;5.07;;;4.45;;
21979;SDS011;11154;48.558;9.234;2023-06-10T07:48:41;5.57;;;4.55;;
21979;SDS011;11154;48.558;9.234;2023-06-10T07:50:43;5.63;;;4.80;;
21979;SDS011;11154;48.558;9.234;2023-06-10T07:52:46;6.20;;;5.20;;
21979;SDS011;11154;48.558;9.234;2023-06-10T07:54:47;5.25;;;4.10;;
21979;SDS011;11154;48.558;9.234;2023-06-10T07:56:49;5.18;;;4.68;;
21979;SDS011;11154;48.558;9.234;2023-06-10T07:58:52;5.50;;;4.50;;
21979;SDS011;11154;48.558;9.234;2023-06-10T08:00:53;5.43;;;4.43;;
21979;SDS011;11154;48.558;9.234;2023-06-10T08:02:55;4.55;;;4.15;;
21979;SDS011;11154;48.558;9.234;2023-06-10T08:04:57;5.10;;;4.55;;
21979;SDS011;11154;48.558;9.234;2023-06-10T08:06:59;6.18;;;4.35;;
21979;SDS011;11154;48.558;9.234;2023-06-10T08:09:02;4.60;;;4.20;;
21979;SDS011;11154;48.558;9.234;2023-06-10T08:11:03;5.25;;;4.75;;
21979;SDS011;11154;48.558;9.234;2023-06-10T08:13:07;6.20;;;4.70;;
21979;SDS011;11154;48.558;9.234;2023-06-10T08:15:09;4.70;;;4.10;;
21979;SDS011;11154;48.558;9.234;2023-06-10T08:17:11;7.60;;;4.55;;
21979;SDS011;11154;48.558;9.234;2023-06-10T08:19:13;4.97;;;4.47;;
21979;SDS011;11154;48.558;9.234;2023-06-10T08:21:14;6.15;;;4.18;;
21979;SDS011;11154;48.558;9.234;2023-06-10T08:23:16;4.82;;;4.32;;
21979;SDS011;11154;48.558;9.234;2023-06-10T08:25:21;4.80;;;4.30;;
21979;SDS011;11154;48.558;9.234;2023-06-10T08:27:22;4.80;;;4.30;;
21979;SDS011;11154;48.558;9.234;2023-06-10T08:29:25;4.80;;;4.15;;
21979;SDS011;11154;48.558;9.234;2023-06-10T08:31:26;4.30;;;3.90;;
21979;SDS011;11154;48.558;9.234;2023-06-10T08:33:28;4.72;;;4.20;;
21979;SDS011;11154;48.558;9.234;2023-06-10T08:35:30;5.05;;;4.22;;
21979;SDS011;11154;48.558;9.234;2023-06-10T08:37:32;4.32;;;3.92;;
21979;SDS011;11154;48.558;9.234;2023-06-10T08:39:33;4.88;;;4.40;;
21979;SDS011;11154;48.558;9.234;2023-06-10T08:41:36;4.75;;;4.10;;
21979;SDS011;11154;48.558;9.234;2023-06-10T08:43:44;4.93;;;4.20;;
21979;SDS011;11154;48.558;9.234;2023-06-10T08:45:49;5.28;;;4.60;;
21979;SDS011;11154;48.558;9.234;2023-06-10T08:47:53;4.63;;;3.97;;
21979;SDS011;11154;48.558;9.234;2023-06-10T08:50:00;4.00;;;3.60;;
21979;SDS011;11154;48.558;9.234;2023-06-10T08:52:04;4.07;;;3.63;;
21979;SDS011;11154;48.558;9.234;2023-06-10T08:54:09;8.45;;;4.88;;
21979;SDS011;11154;48.558;9.234;2023-06-10T08:56:16;4.60;;;3.90;;
21979;SDS011;11154;48.558;9.234;2023-06-10T08:58:20;6.75;;;4.13;;
21979;SDS011;11154;48.558;9.234;2023-06-10T09:00:22;5.80;;;3.50;;
21979;SDS011;11154;48.558;9.234;2023-06-10T09:02:25;3.75;;;3.15;;
21979;SDS011;11154;48.558;9.234;2023-06-10T09:04:28;4.63;;;3.65;;
21979;SDS011;11154;48.558;9.234;2023-06-10T09:06:30;5.65;;;3.55;;
21979;SDS011;11154;48.558;9.234;2023-06-10T09:08:33;4.65;;;3.53;;
21979;SDS011;11154;48.558;9.234;2023-06-10T09:10:36;3.75;;;3.40;;
21979;SDS011;11154;48.558;9.234;2023-06-10T09:12:37;4.43;;;3.35;;
21979;SDS011;11154;48.558;9.234;2023-06-10T09:14:41;3.90;;;3.50;;
21979;SDS011;11154;48.558;9.234;2023-06-10T09:16:42;4.03;;;3.10;;
21979;SDS011;11154;48.558;9.234;2023-06-10T09:18:46;4.10;;;3.30;;
21979;SDS011;11154;48.558;9.234;2023-06-10T09:20:48;3.67;;;3.30;;
21979;SDS011;11154;48.558;9.234;2023-06-10T09:22:50;4.18;;;3.40;;
21979;SDS011;11154;48.558;9.234;2023-06-10T09:24:52;3.83;;;3.20;;
21979;SDS011;11154;48.558;9.234;2023-06-10T09:27:04;3.40;;;3.10;;
21979;SDS011;11154;48.558;9.234;2023-06-10T09:29:07;3.70;;;3.40;;
21979;SDS011;11154;48.558;9.234;2023-06-10T09:31:11;3.60;;;2.90;;
21979;SDS011;11154;48.558;9.234;2023-06-10T09:33:14;4.35;;;3.00;;
21979;SDS011;11154;48.558;9.234;2023-06-10T09:35:16;3.45;;;3.05;;
21979;SDS011;11154;48.558;9.234;2023-06-10T09:37:20;3.00;;;2.70;;
21979;SDS011;11154;48.558;9.234;2023-06-10T09:39:22;3.05;;;2.75;;
21979;SDS011;11154;48.558;9.234;2023-06-10T09:41:30;3.20;;;2.90;;
21979;SDS011;11154;48.558;9.234;2023-06-10T09:43:40;3.00;;;2.70;;
21979;SDS011;11154;48.558;9.234;2023-06-10T09:45:42;3.85;;;2.85;;
21979;SDS011;11154;48.558;9.234;2023-06-10T09:47:46;3.15;;;2.85;;
21979;SDS011;11154;48.558;9.234;2023-06-10T09:49:48;3.55;;;2.72;;
21979;SDS011;11154;48.558;9.234;2023-06-10T09:51:50;4.40;;;2.70;;
21979;SDS011;11154;48.558;9.234;2023-06-10T09:53:53;3.17;;;2.88;;
21979;SDS011;11154;48.558;9.234;2023-06-10T09:55:54;3.42;;;2.80;;
21979;SDS011;11154;48.558;9.234;2023-06-10T09:58:04;3.47;;;3.15;;
21979;SDS011;11154;48.558;9.234;2023-06-10T10:00:07;3.95;;;3.10;;
21979;SDS011;11154;48.558;9.234;2023-06-10T10:02:13;4.90;;;2.67;;
21979;SDS011;11154;48.558;9.234;2023-06-10T10:04:21;3.47;;;2.60;;
21979;SDS011;11154;48.558;9.234;2023-06-10T10:06:24;3.60;;;2.80;;
21979;SDS011;11154;48.558;9.234;2023-06-10T10:08:26;3.58;;;2.78;;
21979;SDS011;11154;48.558;9.234;2023-06-10T10:10:28;3.83;;;2.83;;
21979;SDS011;11154;48.558;9.234;2023-06-10T10:12:29;4.38;;;2.80;;
21979;SDS011;11154;48.558;9.234;2023-06-10T10:14:32;4.25;;;2.75;;
21979;SDS011;11154;48.558;9.234;2023-06-10T10:16:35;4.43;;;3.15;;
21979;SDS011;11154;48.558;9.234;2023-06-10T10:18:40;3.70;;;2.60;;
21979;SDS011;11154;48.558;9.234;2023-06-10T10:20:46;2.80;;;2.50;;
21979;SDS011;11154;48.558;9.234;2023-06-10T10:22:52;3.80;;;2.70;;
21979;SDS011;11154;48.558;9.234;2023-06-10T10:24:57;3.33;;;2.80;;
21979;SDS011;11154;48.558;9.234;2023-06-10T10:27:04;3.00;;;2.80;;
21979;SDS011;11154;48.558;9.234;2023-06-10T10:29:14;3.10;;;2.80;;
21979;SDS011;11154;48.558;9.234;2023-06-10T10:31:22;3.97;;;2.67;;
21979;SDS011;11154;48.558;9.234;2023-06-10T10:33:27;4.07;;;2.72;;
21979;SDS011;11154;48.558;9.234;2023-06-10T10:35:32;2.70;;;2.50;;
21979;SDS011;11154;48.558;9.234;2023-06-10T10:37:35;3.47;;;2.85;;
21979;SDS011;11154;48.558;9.234;2023-06-10T10:39:36;5.10;;;3.10;;
21979;SDS011;11154;48.558;9.234;2023-06-10T10:41:38;4.63;;;4.00;;
21979;SDS011;11154;48.558;9.234;2023-06-10T10:43:41;4.47;;;3.30;;
21979;SDS011;11154;48.558;9.234;2023-06-10T10:45:45;5.82;;;3.88;;
21979;SDS011;11154;48.558;9.234;2023-06-10T10:47:51;3.88;;;2.90;;
21979;SDS011;11154;48.558;9.234;2023-06-10T10:49:55;3.80;;;2.95;;
21979;SDS011;11154;48.558;9.234;2023-06-10T10:51:59;3.15;;;2.70;;
21979;SDS011;11154;48.558;9.234;2023-06-10T10:54:09;3.22;;;2.65;;
21979;SDS011;11154;48.558;9.234;2023-06-10T10:56:12;5.63;;;3.00;;
21979;SDS011;11154;48.558;9.234;2023-06-10T10:58:15;5.82;;;2.85;;
21979;SDS011;11154;48.558;9.234;2023-06-10T11:00:24;6.35;;;3.40;;
21979;SDS011;11154;48.558;9.234;2023-06-10T11:02:36;3.72;;;2.80;;
21979;SDS011;11154;48.558;9.234;2023-06-10T11:04:45;7.10;;;3.50;;
21979;SDS011;11154;48.558;9.234;2023-06-10T11:06:52;4.30;;;2.83;;
21979;SDS011;11154;48.558;9.234;2023-06-10T11:08:54;3.60;;;3.03;;
21979;SDS011;11154;48.558;9.234;2023-06-10T11:10:55;4.82;;;2.63;;
21979;SDS011;11154;48.558;9.234;2023-06-10T11:12:57;3.47;;;2.90;;
21979;SDS011;11154;48.558;9.234;2023-06-10T11:14:59;3.60;;;2.70;;
21979;SDS011;11154;48.558;9.234;2023-06-10T11:17:00;2.88;;;2.58;;
21979;SDS011;11154;48.558;9.234;2023-06-10T11:19:02;2.88;;;2.58;;
21979;SDS011;11154;48.558;9.234;2023-06-10T11:21:05;4.50;;;2.80;;
21979;SDS011;11154;48.558;9.234;2023-06-10T11:23:07;3.33;;;2.85;;
21979;SDS011;11154;48.558;9.234;2023-06-10T11:25:13;3.65;;;2.78;;
21979;SDS011;11154;48.558;9.234;2023-06-10T11:27:15;3.90;;;3.08;;
21979;SDS011;11154;48.558;9.234;2023-06-10T11:29:18;3.30;;;2.50;;
21979;SDS011;11154;48.558;9.234;2023-06-10T11:31:20;2.95;;;2.60;;
21979;SDS011;11154;48.558;9.234;2023-06-10T11:33:23;3.65;;;2.88;;
21979;SDS011;11154;48.558;9.234;2023-06-10T11:35:26;2.92;;;2.60;;
21979;SDS011;11154;48.558;9.234;2023-06-10T11:37:29;3.58;;;2.70;;
21979;SDS011;11154;48.558;9.234;2023-06-10T11:39:30;3.30;;;2.58;;
21979;SDS011;11154;48.558;9.234;2023-06-10T11:41:33;2.90;;;2.33;;
21979;SDS011;11154;48.558;9.234;2023-06-10T11:43:36;2.60;;;2.40;;
21979;SDS011;11154;48.558;9.234;2023-06-10T11:45:38;3.97;;;2.60;;
21979;SDS011;11154;48.558;9.234;2023-06-10T11:47:54;4.03;;;2.33;;
21979;SDS011;11154;48.558;9.234;2023-06-10T11:49:57;2.75;;;2.53;;
21979;SDS011;11154;48.558;9.234;2023-06-10T11:51:58;3.40;;;2.72;;
21979;SDS011;11154;48.558;9.234;2023-06-10T11:54:02;3.47;;;2.70;;
21979;SDS011;11154;48.558;9.234;2023-06-10T11:56:04;5.22;;;3.13;;
21979;SDS011;11154;48.558;9.234;2023-06-10T11:58:11;3.90;;;2.80;;
21979;SDS011;11154;48.558;9.234;2023-06-10T12:00:14;3.00;;;2.70;;
21979;SDS011;11154;48.558;9.234;2023-06-10T12:02:16;2.97;;;2.67;;
21979;SDS011;11154;48.558;9.234;2023-06-10T12:04:20;5.78;;;2.70;;
21979;SDS011;11154;48.558;9.234;2023-06-10T12:06:21;3.25;;;2.72;;
21979;SDS011;11154;48.558;9.234;2023-06-10T12:08:23;4.20;;;2.60;;
21979;SDS011;11154;48.558;9.234;2023-06-10T12:10:27;3.85;;;2.35;;
21979;SDS011;11154;48.558;9.234;2023-06-10T12:12:28;2.83;;;2.53;;
21979;SDS011;11154;48.558;9.234;2023-06-10T12:16:51;2.92;;;2.30;;
21979;SDS011;11154;48.558;9.234;2023-06-10T12:19:00;3.25;;;2.60;;
21979;SDS011;11154;48.558;9.234;2023-06-10T12:23:08;2.67;;;2.40;;
21979;SDS011;11154;48.558;9.234;2023-06-10T12:25:11;3.28;;;2.78;;
21979;SDS011;11154;48.558;9.234;2023-06-10T12:27:15;2.88;;;2.67;;